Terminal Aerodrome Forecast
Issued by NWS

Home | Current Version | Previous Version | Graphics & Text | Print | Product List | Glossary On
Versions: 1 2 3 4 5 6 7 8 9 10 11 12
000
FTUS43 KICT 261737
TAFHUT
TAF
KHUT 261737Z 2618/2718 25005KT P6SM SKC
     FM262000 32005KT P6SM SKC
     FM262300 04004KT P6SM SKC
     FM270900 10004KT P6SM FEW250
     FM271400 14008KT P6SM BKN060
     FM271500 14009KT P6SM BKN025=

USA.gov is the U.S. government's official web portal to all federal, state and local government web resources and services.